McCrea, Pennsylvania
Current Conditions -  °F | °C
As of 5:56 PM on Thursday 18 Dec 2014 (Local Time) from KCXY Reporting Station
Overcast Overcast  
Wind Chill: 28°   Ceiling: 3000
Heat Index: 36°   Visibility: 10mi
Dew Point: 23°   Wind: 12mph
Humidity: 59%   Direction: 310°NW
Pressure: 30.08"   Gusts: 23mph
Location:  40.183°N, 77.4166°W
Report Text: KCXY 182256Z 31010G20KT 10SM OVC030 02/M05 A3008 RMK AO2 SLP189 T00221050
Loading
Personal Weather Stations






























Interactive Weather Map New forecast layout! Learn more

10-Day Weather Forecast

Advertisements
Track Severe Weather on mobile